createdAt,value
2023-02-28T00:00:37.252Z,5.20
2023-02-28T00:03:04.985Z,5.10
2023-02-28T00:05:32.052Z,4.90
2023-02-28T00:07:58.796Z,3.30
2023-02-28T00:12:57.829Z,4.40
2023-02-28T00:15:25.156Z,4.50
2023-02-28T00:17:53.028Z,4.80
2023-02-28T00:20:20.241Z,5.10
2023-02-28T00:22:50.970Z,5.80
2023-02-28T00:25:21.435Z,5.20
2023-02-28T00:27:49.222Z,5.30
2023-02-28T00:30:21.756Z,4.20
2023-02-28T00:32:48.528Z,5.20
2023-02-28T00:35:15.613Z,4.60
2023-02-28T00:37:42.748Z,4.70
2023-02-28T00:40:11.002Z,4.50
2023-02-28T00:42:38.007Z,3.50
2023-02-28T00:45:05.814Z,5.30
2023-02-28T00:47:33.240Z,4.70
2023-02-28T00:50:01.069Z,4.70
2023-02-28T00:52:28.728Z,4.80
2023-02-28T00:54:56.017Z,5.60
2023-02-28T00:57:22.809Z,7.00
2023-02-28T01:02:16.617Z,4.40
2023-02-28T01:04:43.347Z,5.80
2023-02-28T01:09:36.768Z,3.80
2023-02-28T01:12:05.133Z,6.40
2023-02-28T01:14:33.171Z,5.90
2023-02-28T01:19:28.325Z,4.40
2023-02-28T01:21:55.055Z,4.90
2023-02-28T01:26:48.223Z,4.80
2023-02-28T01:29:17.940Z,4.80
2023-02-28T01:31:45.939Z,5.30
2023-02-28T01:36:40.184Z,4.20
2023-02-28T01:39:07.015Z,5.50
2023-02-28T01:41:35.795Z,4.00
2023-02-28T01:44:06.775Z,3.90
2023-02-28T01:46:36.208Z,5.50
2023-02-28T01:49:18.715Z,4.60
2023-02-28T01:51:51.883Z,4.00
2023-02-28T01:54:31.861Z,4.00
2023-02-28T01:57:05.206Z,4.30
2023-02-28T01:59:38.575Z,6.20
2023-02-28T02:02:05.889Z,5.00
2023-02-28T02:04:42.594Z,3.90
2023-02-28T02:07:10.827Z,4.40
2023-02-28T02:09:37.462Z,3.80
2023-02-28T02:12:33.708Z,4.60
2023-02-28T02:15:14.447Z,4.30
2023-02-28T02:17:48.641Z,4.90
2023-02-28T02:20:35.969Z,4.10
2023-02-28T02:23:30.586Z,3.80
2023-02-28T02:26:06.127Z,4.00
2023-02-28T02:28:51.828Z,1.60
2023-02-28T02:31:29.848Z,4.60
2023-02-28T02:34:14.825Z,5.00
2023-02-28T02:36:50.365Z,4.10
2023-02-28T02:39:28.004Z,3.60
2023-02-28T02:41:57.272Z,5.70
2023-02-28T02:44:31.381Z,4.40
2023-02-28T02:47:10.837Z,4.40
2023-02-28T02:49:40.933Z,6.60
2023-02-28T02:52:12.042Z,4.40
2023-02-28T02:54:44.344Z,5.50
2023-02-28T02:57:22.203Z,5.60
2023-02-28T02:59:52.214Z,4.60
2023-02-28T03:02:22.865Z,5.00
2023-02-28T03:05:03.874Z,3.80
2023-02-28T03:07:30.626Z,3.30
2023-02-28T03:09:58.575Z,5.40
2023-02-28T03:12:42.326Z,5.20
2023-02-28T03:15:19.793Z,4.40
2023-02-28T03:18:07.887Z,3.70
2023-02-28T03:20:53.569Z,3.80
2023-02-28T03:23:56.707Z,5.20
2023-02-28T03:26:27.375Z,3.10
2023-02-28T03:28:58.013Z,3.80
2023-02-28T03:31:34.304Z,3.60
2023-02-28T03:34:08.589Z,5.40
2023-02-28T03:36:44.789Z,4.00
2023-02-28T03:39:25.558Z,4.50
2023-02-28T03:42:00.914Z,4.40
2023-02-28T03:44:36.281Z,4.20
2023-02-28T03:47:20.616Z,3.90
2023-02-28T03:49:57.018Z,5.10
2023-02-28T03:52:28.254Z,5.20
2023-02-28T03:55:03.550Z,3.00
2023-02-28T03:58:07.025Z,5.70
2023-02-28T04:00:44.506Z,4.70
2023-02-28T04:03:13.785Z,4.50
2023-02-28T04:05:55.618Z,3.80
2023-02-28T04:08:23.459Z,5.10
2023-02-28T04:11:00.163Z,5.60
2023-02-28T04:13:26.928Z,6.20
2023-02-28T04:18:20.525Z,5.30
2023-02-28T04:20:47.292Z,5.60
2023-02-28T04:23:14.212Z,4.50
2023-02-28T04:25:41.479Z,5.40
2023-02-28T04:28:08.286Z,5.20
2023-02-28T04:30:35.070Z,6.10
2023-02-28T04:35:28.549Z,5.20
2023-02-28T04:37:55.271Z,5.50
2023-02-28T04:40:22.028Z,4.80
2023-02-28T04:45:15.207Z,5.30
2023-02-28T04:47:41.855Z,5.60
2023-02-28T04:50:09.963Z,5.20
2023-02-28T04:52:36.633Z,4.40
2023-02-28T04:55:04.815Z,4.60
2023-02-28T04:57:31.666Z,6.10
2023-02-28T04:59:58.369Z,4.90
2023-02-28T05:02:25.583Z,4.30
2023-02-28T05:04:52.427Z,5.40
2023-02-28T05:07:19.141Z,4.90
2023-02-28T05:09:45.836Z,6.80
2023-02-28T05:12:12.686Z,4.70
2023-02-28T05:14:39.492Z,5.20
2023-02-28T05:17:06.404Z,5.30
2023-02-28T05:19:33.107Z,5.20
2023-02-28T05:24:27.147Z,5.60
2023-02-28T05:26:55.554Z,4.20
2023-02-28T05:29:23.266Z,6.00
2023-02-28T05:31:51.550Z,5.20
2023-02-28T05:34:18.548Z,5.70
2023-02-28T05:36:45.277Z,5.10
2023-02-28T05:41:44.531Z,5.00
2023-02-28T05:44:12.264Z,4.00
2023-02-28T05:46:39.543Z,4.70
2023-02-28T05:49:06.456Z,6.40
2023-02-28T05:51:33.261Z,5.20
2023-02-28T05:56:28.530Z,6.60
2023-02-28T05:58:55.222Z,4.80
2023-02-28T06:03:51.644Z,5.40
2023-02-28T06:06:18.531Z,5.30
2023-02-28T06:08:45.872Z,5.30
2023-02-28T06:11:12.811Z,5.80
2023-02-28T06:13:39.755Z,5.90
2023-02-28T06:16:06.726Z,4.60
2023-02-28T06:18:33.513Z,5.20
2023-02-28T06:23:27.240Z,3.90
2023-02-28T06:28:21.288Z,4.80
2023-02-28T06:30:48.060Z,7.30
2023-02-28T06:35:44.184Z,4.70
2023-02-28T06:38:11.786Z,5.20
2023-02-28T06:40:38.564Z,6.70
2023-02-28T06:43:05.622Z,5.50
2023-02-28T06:45:32.322Z,5.50
2023-02-28T06:47:59.539Z,5.80
2023-02-28T06:50:26.374Z,6.10
2023-02-28T06:52:55.085Z,5.70
2023-02-28T06:55:21.978Z,4.90
2023-02-28T06:57:48.856Z,5.10
2023-02-28T07:00:16.156Z,4.20
2023-02-28T07:02:42.879Z,5.60
2023-02-28T07:07:39.134Z,4.30
2023-02-28T07:10:06.621Z,5.50
2023-02-28T07:12:33.879Z,5.50
2023-02-28T07:15:00.584Z,5.30
2023-02-28T07:19:53.804Z,7.10
2023-02-28T07:22:20.541Z,6.60
2023-02-28T07:27:24.501Z,5.90
2023-02-28T07:29:51.404Z,6.40
2023-02-28T07:32:19.681Z,5.40
2023-02-28T07:34:46.825Z,3.40
2023-02-28T07:37:13.665Z,6.20
2023-02-28T07:39:40.304Z,5.90
2023-02-28T07:44:35.373Z,5.40
2023-02-28T07:47:02.176Z,5.60
2023-02-28T07:49:28.902Z,5.40
2023-02-28T07:54:22.226Z,4.10
2023-02-28T07:59:15.536Z,7.60
2023-02-28T08:01:42.370Z,6.80
2023-02-28T08:04:09.078Z,5.70
2023-02-28T08:09:03.318Z,6.10
2023-02-28T08:11:30.434Z,5.40
2023-02-28T08:13:57.380Z,7.70
2023-02-28T08:18:54.161Z,6.20
2023-02-28T08:21:22.077Z,3.90
2023-02-28T08:23:49.753Z,6.50
2023-02-28T08:26:18.420Z,7.40
2023-02-28T08:28:45.609Z,3.90
2023-02-28T08:31:15.557Z,3.70
2023-02-28T08:33:43.480Z,7.10
2023-02-28T08:36:10.653Z,7.70
2023-02-28T08:38:38.557Z,6.30
2023-02-28T08:41:08.273Z,5.40
2023-02-28T08:43:35.948Z,6.80
2023-02-28T08:46:03.142Z,3.70
2023-02-28T08:48:32.140Z,6.50
2023-02-28T08:51:08.665Z,5.60
2023-02-28T08:53:37.034Z,8.30
2023-02-28T08:56:14.901Z,5.10
2023-02-28T08:58:41.769Z,6.00
2023-02-28T09:01:10.622Z,5.60
2023-02-28T09:03:37.479Z,5.20
2023-02-28T09:06:05.852Z,6.80
2023-02-28T09:08:32.812Z,5.30
2023-02-28T09:11:02.257Z,4.80
2023-02-28T09:13:31.425Z,6.40
2023-02-28T09:16:03.221Z,5.00
2023-02-28T09:18:30.554Z,5.10
2023-02-28T09:20:58.832Z,4.80
2023-02-28T09:23:26.097Z,6.20
2023-02-28T09:25:55.275Z,5.60
2023-02-28T09:28:23.085Z,5.50
2023-02-28T09:30:52.515Z,5.20
2023-02-28T09:33:22.034Z,4.70
2023-02-28T09:35:58.514Z,4.60
2023-02-28T09:38:25.289Z,4.50
2023-02-28T09:40:55.178Z,5.40
2023-02-28T09:43:25.117Z,3.40
2023-02-28T09:46:03.527Z,7.70
2023-02-28T09:48:41.116Z,6.00
2023-02-28T09:51:36.190Z,5.60
2023-02-28T09:54:03.228Z,6.20
2023-02-28T09:56:42.986Z,5.20
2023-02-28T09:59:25.538Z,4.00
2023-02-28T10:01:58.392Z,4.60
2023-02-28T10:04:52.861Z,5.00
2023-02-28T10:07:47.356Z,4.60
2023-02-28T10:10:20.181Z,5.90
2023-02-28T10:12:48.313Z,6.00
2023-02-28T10:15:17.468Z,7.90
2023-02-28T10:18:00.673Z,4.30
2023-02-28T10:20:39.829Z,7.10
2023-02-28T10:23:22.990Z,8.30
2023-02-28T10:25:59.771Z,10.20
2023-02-28T10:28:28.812Z,9.70
2023-02-28T10:30:56.293Z,8.30
2023-02-28T10:33:30.752Z,4.60
2023-02-28T10:35:57.892Z,8.90
2023-02-28T10:38:33.867Z,7.40
2023-02-28T10:41:11.755Z,6.80
2023-02-28T10:43:40.402Z,6.90
2023-02-28T10:46:10.137Z,5.60
2023-02-28T10:48:44.082Z,6.10
2023-02-28T10:51:16.216Z,5.50
2023-02-28T10:54:03.627Z,7.90
2023-02-28T10:56:31.733Z,7.50
2023-02-28T10:58:59.051Z,7.50
2023-02-28T11:01:35.682Z,7.60
2023-02-28T11:04:03.139Z,4.90
2023-02-28T11:06:34.048Z,5.20
2023-02-28T11:09:05.241Z,6.50
2023-02-28T11:11:44.421Z,7.10
2023-02-28T11:14:48.025Z,4.20
2023-02-28T11:17:34.976Z,3.10
2023-02-28T11:20:08.154Z,7.30
2023-02-28T11:22:40.151Z,6.90
2023-02-28T11:25:26.151Z,4.40
2023-02-28T11:27:55.670Z,5.20
2023-02-28T11:30:28.396Z,6.50
2023-02-28T11:32:55.251Z,6.90
2023-02-28T11:35:29.622Z,7.80
2023-02-28T11:37:56.804Z,6.00
2023-02-28T11:40:37.198Z,5.90
2023-02-28T11:43:29.076Z,7.00
2023-02-28T11:46:02.083Z,6.30
2023-02-28T11:48:38.889Z,7.00
2023-02-28T11:51:16.561Z,5.60
2023-02-28T11:54:20.693Z,6.60
2023-02-28T11:56:58.391Z,5.50
2023-02-28T11:59:53.439Z,5.90
2023-02-28T12:02:23.627Z,6.10
2023-02-28T12:05:21.832Z,5.90
2023-02-28T12:08:01.013Z,7.40
2023-02-28T12:10:30.990Z,6.80
2023-02-28T12:13:22.632Z,8.30
2023-02-28T12:15:55.677Z,4.10
2023-02-28T12:18:38.555Z,5.90
2023-02-28T12:21:15.444Z,5.80
2023-02-28T12:23:56.877Z,6.40
2023-02-28T12:26:44.326Z,7.80
2023-02-28T12:29:25.666Z,7.90
2023-02-28T12:31:56.220Z,6.80
2023-02-28T12:34:29.380Z,7.60
2023-02-28T12:36:59.733Z,8.80
2023-02-28T12:39:32.595Z,8.40
2023-02-28T12:42:04.943Z,16.50
2023-02-28T12:44:34.195Z,8.20
2023-02-28T12:47:06.492Z,7.80
2023-02-28T12:49:50.038Z,12.10
2023-02-28T12:52:25.439Z,9.20
2023-02-28T12:55:28.469Z,8.70
2023-02-28T12:57:58.036Z,9.50
2023-02-28T13:00:31.720Z,9.70
2023-02-28T13:03:04.511Z,9.10
2023-02-28T13:05:46.108Z,7.80
2023-02-28T13:08:31.956Z,10.00
2023-02-28T13:10:58.856Z,9.60
2023-02-28T13:13:31.853Z,9.30
2023-02-28T13:16:09.049Z,10.70
2023-02-28T13:18:42.983Z,8.00
2023-02-28T13:21:22.483Z,9.20
2023-02-28T13:23:59.573Z,8.20
2023-02-28T13:26:32.537Z,10.30
2023-02-28T13:29:00.552Z,7.70
2023-02-28T13:31:28.021Z,8.20
2023-02-28T13:33:58.139Z,7.90
2023-02-28T13:36:32.683Z,10.00
2023-02-28T13:39:23.723Z,10.90
2023-02-28T13:41:50.671Z,15.70
2023-02-28T13:44:21.052Z,8.00
2023-02-28T13:46:50.756Z,10.70
2023-02-28T13:49:31.101Z,26.20
2023-02-28T13:52:07.127Z,6.90
2023-02-28T13:54:51.862Z,7.90
2023-02-28T13:57:27.315Z,7.80
2023-02-28T14:00:21.913Z,9.00
2023-02-28T14:03:27.093Z,8.00
2023-02-28T14:06:33.825Z,7.20
2023-02-28T14:09:08.961Z,10.60
2023-02-28T14:11:39.375Z,8.40
2023-02-28T14:14:08.978Z,8.60
2023-02-28T14:16:47.923Z,9.00
2023-02-28T14:19:23.197Z,6.80
2023-02-28T14:22:10.181Z,8.10
2023-02-28T14:24:42.574Z,6.40
2023-02-28T14:27:27.781Z,8.20
2023-02-28T14:30:28.884Z,8.40
2023-02-28T14:33:27.583Z,6.00
2023-02-28T14:36:03.230Z,8.70
2023-02-28T14:38:47.315Z,9.40
2023-02-28T14:41:20.671Z,10.40
2023-02-28T14:43:53.799Z,6.60
2023-02-28T14:46:22.053Z,8.20
2023-02-28T14:48:50.718Z,7.30
2023-02-28T14:51:24.833Z,10.20
2023-02-28T14:53:57.662Z,9.00
2023-02-28T14:56:29.341Z,12.30
2023-02-28T14:58:57.724Z,9.40
2023-02-28T15:01:26.721Z,6.80
2023-02-28T15:04:06.091Z,8.60
2023-02-28T15:06:34.220Z,6.70
2023-02-28T15:09:19.674Z,8.90
2023-02-28T15:11:49.781Z,10.50
2023-02-28T15:14:22.481Z,8.90
2023-02-28T15:16:57.764Z,9.20
2023-02-28T15:19:35.623Z,11.50
2023-02-28T15:22:08.996Z,8.30
2023-02-28T15:24:49.109Z,9.40
2023-02-28T15:27:23.367Z,9.50
2023-02-28T15:29:56.212Z,11.30
2023-02-28T15:32:32.877Z,9.10
2023-02-28T15:35:19.326Z,8.10
2023-02-28T15:37:58.276Z,9.10
2023-02-28T15:40:41.637Z,8.50
2023-02-28T15:43:16.569Z,9.90
2023-02-28T15:46:03.751Z,8.50
2023-02-28T15:48:46.359Z,9.30
2023-02-28T15:51:13.126Z,13.80
2023-02-28T15:53:51.004Z,9.40
2023-02-28T15:56:40.078Z,8.80
2023-02-28T15:59:08.565Z,13.20
2023-02-28T16:01:37.864Z,10.80
2023-02-28T16:04:18.289Z,9.90
2023-02-28T16:06:46.208Z,14.00
2023-02-28T16:09:15.639Z,9.70
2023-02-28T16:11:49.329Z,7.90
2023-02-28T16:14:28.563Z,8.60
2023-02-28T16:16:58.626Z,8.00
2023-02-28T16:19:25.408Z,9.50
2023-02-28T16:21:52.313Z,10.20
2023-02-28T16:24:19.065Z,7.90
2023-02-28T16:26:52.544Z,9.10
2023-02-28T16:29:39.476Z,9.00
2023-02-28T16:32:07.658Z,9.30
2023-02-28T16:34:34.592Z,7.50
2023-02-28T16:37:01.431Z,10.40
2023-02-28T16:39:28.067Z,12.40
2023-02-28T16:44:29.501Z,10.90
2023-02-28T16:46:56.285Z,10.90
2023-02-28T16:49:23.214Z,11.70
2023-02-28T16:51:49.966Z,10.80
2023-02-28T16:54:16.687Z,10.30
2023-02-28T16:56:46.398Z,15.30
2023-02-28T16:59:14.706Z,14.50
2023-02-28T17:01:41.945Z,18.70
2023-02-28T17:04:12.254Z,16.90
2023-02-28T17:06:41.104Z,13.50
2023-02-28T17:09:17.009Z,13.80
2023-02-28T17:11:45.416Z,14.00
2023-02-28T17:14:12.332Z,11.80
2023-02-28T17:16:46.262Z,11.10
2023-02-28T17:19:16.918Z,15.10
2023-02-28T17:21:44.390Z,10.00
2023-02-28T17:24:16.548Z,12.00
2023-02-28T17:26:46.198Z,11.00
2023-02-28T17:29:23.348Z,11.00
2023-02-28T17:31:50.134Z,11.70
2023-02-28T17:34:19.483Z,11.50
2023-02-28T17:36:48.035Z,11.80
2023-02-28T17:39:16.033Z,10.90
2023-02-28T17:41:43.206Z,13.40
2023-02-28T17:44:10.220Z,13.20
2023-02-28T17:46:37.673Z,13.00
2023-02-28T17:49:04.796Z,11.90
2023-02-28T17:51:31.744Z,15.40
2023-02-28T17:53:58.569Z,11.50
2023-02-28T17:56:26.794Z,11.60
2023-02-28T17:58:56.431Z,12.80
2023-02-28T18:01:25.375Z,12.40
2023-02-28T18:03:52.191Z,13.10
2023-02-28T18:06:47.427Z,14.10
2023-02-28T18:09:22.884Z,13.20
2023-02-28T18:11:51.672Z,14.70
2023-02-28T18:14:21.345Z,16.00
2023-02-28T18:16:48.437Z,15.30
2023-02-28T18:19:17.157Z,13.80
2023-02-28T18:21:49.578Z,16.50
2023-02-28T18:24:17.303Z,15.00
2023-02-28T18:26:44.524Z,18.50
2023-02-28T18:29:19.390Z,16.90
2023-02-28T18:31:46.337Z,20.30
2023-02-28T18:34:13.288Z,16.30
2023-02-28T18:36:40.181Z,20.50
2023-02-28T18:39:06.831Z,20.90
2023-02-28T18:41:33.466Z,20.10
2023-02-28T18:44:07.716Z,18.50
2023-02-28T18:46:40.758Z,24.80
2023-02-28T18:49:07.578Z,23.80
2023-02-28T18:51:34.321Z,25.20
2023-02-28T18:54:01.016Z,20.00
2023-02-28T18:58:54.506Z,14.60
2023-02-28T19:01:29.946Z,16.60
2023-02-28T19:03:58.963Z,14.40
2023-02-28T19:06:26.980Z,17.00
2023-02-28T19:08:58.162Z,32.90
2023-02-28T19:11:25.550Z,31.10
2023-02-28T19:13:52.969Z,19.00
2023-02-28T19:16:21.236Z,18.30
2023-02-28T19:18:48.506Z,16.70
2023-02-28T19:21:18.092Z,15.00
2023-02-28T19:23:45.166Z,13.30
2023-02-28T19:26:15.229Z,13.60
2023-02-28T19:28:42.330Z,14.60
2023-02-28T19:31:17.385Z,16.20
2023-02-28T19:33:44.711Z,12.90
2023-02-28T19:36:12.719Z,15.00
2023-02-28T19:38:40.592Z,19.20
2023-02-28T19:41:10.032Z,12.90
2023-02-28T19:43:37.486Z,13.30
2023-02-28T19:46:05.395Z,13.90
2023-02-28T19:48:32.497Z,11.90
2023-02-28T19:51:09.236Z,12.10
2023-02-28T19:53:38.082Z,14.60
2023-02-28T19:56:05.255Z,12.70
2023-02-28T19:58:33.659Z,14.80
2023-02-28T20:01:08.298Z,16.00
2023-02-28T20:03:35.069Z,16.30
2023-02-28T20:06:07.619Z,17.40
2023-02-28T20:08:34.748Z,14.50
2023-02-28T20:11:07.554Z,16.70
2023-02-28T20:13:35.261Z,16.70
2023-02-28T20:16:03.616Z,12.80
2023-02-28T20:18:30.329Z,14.90
2023-02-28T20:20:57.545Z,14.10
2023-02-28T20:23:25.355Z,13.70
2023-02-28T20:25:52.294Z,14.00
2023-02-28T20:28:20.697Z,16.00
2023-02-28T20:30:48.912Z,12.50
2023-02-28T20:33:17.527Z,15.30
2023-02-28T20:35:45.026Z,13.50
2023-02-28T20:38:12.687Z,12.00
2023-02-28T20:40:39.928Z,11.90
2023-02-28T20:43:07.013Z,17.10
2023-02-28T20:45:35.677Z,12.60
2023-02-28T20:48:02.912Z,15.90
2023-02-28T20:50:29.841Z,15.90
2023-02-28T20:52:56.680Z,14.70
2023-02-28T20:55:23.440Z,14.00
2023-02-28T20:57:51.185Z,18.00
2023-02-28T21:00:20.690Z,18.40
2023-02-28T21:02:48.217Z,17.50
2023-02-28T21:05:15.154Z,11.70
2023-02-28T21:07:41.896Z,14.90
2023-02-28T21:10:10.022Z,15.60
2023-02-28T21:12:36.793Z,16.30
2023-02-28T21:15:04.665Z,16.60
2023-02-28T21:17:31.431Z,12.20
2023-02-28T21:19:58.189Z,16.40
2023-02-28T21:22:25.118Z,15.20
2023-02-28T21:24:53.485Z,13.30
2023-02-28T21:27:20.370Z,14.60
2023-02-28T21:29:47.133Z,11.20
2023-02-28T21:32:14.883Z,12.50
2023-02-28T21:34:41.887Z,11.40
2023-02-28T21:37:08.749Z,10.90
2023-02-28T21:39:36.061Z,13.30
2023-02-28T21:42:04.200Z,13.70
2023-02-28T21:44:34.382Z,11.60
2023-02-28T21:47:02.066Z,8.70
2023-02-28T21:49:29.222Z,14.10
2023-02-28T21:51:56.321Z,12.00
2023-02-28T21:54:23.115Z,12.60
2023-02-28T21:56:53.323Z,9.30
2023-02-28T21:59:20.211Z,10.50
2023-02-28T22:01:50.977Z,6.80
2023-02-28T22:04:24.114Z,10.50
2023-02-28T22:07:00.032Z,9.00
2023-02-28T22:09:26.997Z,8.60
2023-02-28T22:11:54.211Z,10.10
2023-02-28T22:14:21.582Z,9.40
2023-02-28T22:16:52.616Z,5.40
2023-02-28T22:19:21.310Z,7.50
2023-02-28T22:21:48.526Z,6.80
2023-02-28T22:24:17.896Z,5.20
2023-02-28T22:26:44.899Z,4.20
2023-02-28T22:29:13.887Z,7.40
2023-02-28T22:31:40.677Z,6.90
2023-02-28T22:34:09.204Z,8.50
2023-02-28T22:36:36.790Z,7.50
2023-02-28T22:39:04.939Z,7.60
2023-02-28T22:41:32.373Z,6.50
2023-02-28T22:44:01.728Z,7.10
2023-02-28T22:46:31.179Z,8.70
2023-02-28T22:48:59.296Z,7.50
2023-02-28T22:51:27.352Z,5.40
2023-02-28T22:53:55.535Z,5.90
2023-02-28T22:56:23.994Z,6.40
2023-02-28T22:58:52.846Z,6.80
2023-02-28T23:01:22.120Z,7.20
2023-02-28T23:03:49.355Z,8.50
2023-02-28T23:06:20.369Z,7.70
2023-02-28T23:08:47.700Z,7.50
2023-02-28T23:11:24.587Z,7.50
2023-02-28T23:13:58.813Z,7.00
2023-02-28T23:16:37.521Z,7.70
2023-02-28T23:19:08.182Z,7.50
2023-02-28T23:21:36.040Z,8.40
2023-02-28T23:24:05.766Z,8.00
2023-02-28T23:26:33.148Z,6.20
2023-02-28T23:29:01.210Z,7.20
2023-02-28T23:31:27.958Z,7.00
2023-02-28T23:33:56.433Z,6.40
2023-02-28T23:36:23.653Z,8.00
2023-02-28T23:39:09.413Z,8.40
2023-02-28T23:41:36.280Z,7.00
2023-02-28T23:44:02.997Z,5.10
2023-02-28T23:46:30.254Z,7.10
2023-02-28T23:48:59.037Z,10.10
2023-02-28T23:51:25.687Z,8.00
2023-02-28T23:56:22.408Z,6.40
2023-02-28T23:58:50.311Z,6.20
